Time;durP1;ratioP1;P1;durP2;ratioP2;P2;SDS_P1;SDS_P2;PMS_P1;PMS_P2;Temp;Humidity;BMP_temperature;BMP_pressure;BME280_temperature;BME280_humidity;BME280_pressure;Samples;Min_cycle;Max_cycle;Signal;HPM_P1;HPM_P2
2022/03/14 00:00:00;;;;;;;10.73;6.38;;;;;;;6.58;58.59;102157.41;4897934;29;20065;-69
2022/03/14 00:02:39;;;;;;;11.85;6.40;;;;;;;6.51;58.96;102157.41;4898165;29;20048;-69
2022/03/14 00:05:08;;;;;;;9.20;5.95;;;;;;;6.52;59.10;102163.69;4898652;29;20056;-69
2022/03/14 00:07:37;;;;;;;12.13;5.93;;;;;;;6.49;58.39;102161.41;4898509;29;20052;-69
2022/03/14 00:10:06;;;;;;;10.82;6.70;;;;;;;6.49;58.34;102162.22;4898522;29;20056;-69
2022/03/14 00:12:34;;;;;;;10.30;6.80;;;;;;;6.55;58.23;102157.84;4897829;29;20052;-68
2022/03/14 00:15:08;;;;;;;10.30;6.10;;;;;;;6.77;57.39;102152.94;4897928;29;20055;-70
2022/03/14 00:17:38;;;;;;;9.85;6.07;;;;;;;6.70;57.40;102165.75;4898637;29;20587;-69
2022/03/14 00:20:11;;;;;;;9.88;6.47;;;;;;;6.67;58.35;102167.00;4898401;29;20063;-69
2022/03/14 00:22:40;;;;;;;9.15;6.20;;;;;;;6.61;57.76;102167.84;4898225;29;20064;-69
2022/03/14 00:25:10;;;;;;;11.18;6.10;;;;;;;6.56;58.36;102173.91;4898011;29;20049;-69
2022/03/14 00:27:38;;;;;;;10.13;6.60;;;;;;;6.70;56.73;102174.72;4898085;29;20492;-69
2022/03/14 00:30:10;;;;;;;9.27;6.70;;;;;;;6.78;56.50;102170.94;4898454;29;20403;-69
2022/03/14 00:32:39;;;;;;;11.35;6.43;;;;;;;6.70;57.06;102180.16;4898056;29;20489;-69
2022/03/14 00:35:08;;;;;;;14.20;6.82;;;;;;;6.64;57.93;102178.28;4898055;29;20052;-68
2022/03/14 00:37:38;;;;;;;8.27;5.72;;;;;;;6.69;57.53;102178.50;4898414;29;20408;-69
2022/03/14 00:40:08;;;;;;;10.32;6.38;;;;;;;6.57;58.17;102175.63;4897637;29;20408;-69
2022/03/14 00:42:39;;;;;;;10.52;6.50;;;;;;;6.56;58.03;102178.53;4897602;29;20064;-69
2022/03/14 00:45:08;;;;;;;12.57;6.10;;;;;;;6.66;57.25;102173.50;4897918;29;20059;-69
2022/03/14 00:47:36;;;;;;;8.38;6.07;;;;;;;6.75;56.51;102178.69;4897797;29;20053;-69
2022/03/14 00:50:05;;;;;;;9.40;6.03;;;;;;;6.68;57.02;102174.09;4906279;29;20052;-70
2022/03/14 00:52:33;;;;;;;10.63;5.70;;;;;;;6.59;58.20;102183.53;4897409;29;20408;-69
2022/03/14 00:55:01;;;;;;;12.57;6.57;;;;;;;6.54;57.90;102180.63;4899254;29;20056;-69
2022/03/14 00:57:29;;;;;;;9.25;6.10;;;;;;;6.50;58.19;102180.22;4898975;29;20064;-69
2022/03/14 00:59:57;;;;;;;8.80;6.18;;;;;;;6.51;57.63;102181.06;4886534;29;20044;-69
2022/03/14 01:02:25;;;;;;;7.68;5.82;;;;;;;6.53;58.05;102177.09;4898119;29;20056;-69
2022/03/14 01:04:54;;;;;;;8.82;6.10;;;;;;;6.56;57.54;102178.53;4897879;29;20065;-69
2022/03/14 01:07:22;;;;;;;9.70;5.68;;;;;;;6.55;57.24;102182.31;4898215;29;20056;-69
2022/03/14 01:09:50;;;;;;;8.77;6.32;;;;;;;6.60;56.83;102182.47;4897785;29;20055;-69
2022/03/14 01:12:18;;;;;;;10.88;6.00;;;;;;;6.57;57.43;102185.66;4897466;29;20045;-69
2022/03/14 01:14:46;;;;;;;9.05;6.18;;;;;;;6.54;56.94;102192.34;4897833;29;20057;-69
2022/03/14 01:17:14;;;;;;;10.18;5.93;;;;;;;6.52;56.78;102188.16;4897316;29;20064;-69
2022/03/14 01:19:42;;;;;;;10.90;6.72;;;;;;;6.54;57.51;102186.91;4896746;29;20060;-69
2022/03/14 01:22:10;;;;;;;10.00;6.28;;;;;;;6.55;58.11;102183.13;4897222;29;20051;-69
2022/03/14 01:24:43;;;;;;;9.52;5.75;;;;;;;6.54;57.78;102175.19;4897758;29;20090;-69
2022/03/14 01:27:11;;;;;;;15.10;6.05;;;;;;;6.61;56.95;102186.06;4896754;29;20053;-69
2022/03/14 01:29:40;;;;;;;8.82;5.53;;;;;;;6.61;56.76;102184.19;4897318;29;20406;-69
2022/03/14 01:32:10;;;;;;;7.82;5.05;;;;;;;6.62;57.12;102182.28;4897139;29;20056;-69
2022/03/14 01:34:39;;;;;;;8.35;5.10;;;;;;;6.66;57.25;102173.50;4897202;29;20060;-69
2022/03/14 01:37:07;;;;;;;7.78;5.10;;;;;;;6.82;57.80;102182.22;4896418;29;20060;-69
2022/03/14 01:39:35;;;;;;;7.97;5.18;;;;;;;6.72;56.93;102172.63;4896103;29;20052;-69
2022/03/14 01:42:03;;;;;;;9.68;5.28;;;;;;;6.68;57.38;102190.44;4897117;29;20057;-69
2022/03/14 01:44:31;;;;;;;7.18;5.22;;;;;;;6.72;57.24;102182.69;4897361;29;20420;-69
2022/03/14 01:47:00;;;;;;;9.45;5.03;;;;;;;6.71;57.66;102176.38;4897327;29;20049;-70
2022/03/14 01:49:28;;;;;;;10.00;5.28;;;;;;;6.66;57.59;102194.41;4899037;29;20048;-69
2022/03/14 01:51:58;;;;;;;7.25;5.10;;;;;;;6.63;58.31;102201.13;4905929;29;20055;-69
2022/03/14 01:54:27;;;;;;;7.82;5.07;;;;;;;6.69;57.93;102199.41;4897040;29;20044;-69
2022/03/14 01:56:56;;;;;;;9.90;6.15;;;;;;;6.68;58.62;102198.59;4897054;29;20049;-69
2022/03/14 01:59:26;;;;;;;9.45;5.65;;;;;;;6.68;58.48;102198.59;4896993;29;20060;-69
2022/03/14 02:01:58;;;;;;;8.55;5.78;;;;;;;6.68;58.37;102195.88;4897130;29;20055;-69
2022/03/14 02:04:26;;;;;;;7.15;5.28;;;;;;;6.76;58.04;102197.53;4896446;29;20072;-67
2022/03/14 02:06:56;;;;;;;10.70;5.32;;;;;;;6.79;57.20;102207.97;4896556;29;20052;-67
2022/03/14 02:09:24;;;;;;;8.07;5.30;;;;;;;6.90;57.12;102195.59;4897133;29;20045;-67
2022/03/14 02:12:13;;;;;;;7.90;5.40;;;;;;;6.94;57.02;102218.59;4896628;29;20049;-67
2022/03/14 02:14:41;;;;;;;9.30;5.85;;;;;;;6.90;58.03;102217.38;4896979;29;20059;-67
2022/03/14 02:17:16;;;;;;;10.10;5.85;;;;;;;6.79;57.84;102218.84;4897009;29;20060;-68
2022/03/14 02:19:45;;;;;;;8.38;5.82;;;;;;;6.70;58.58;102220.16;4896173;29;20390;-67
2022/03/14 02:22:14;;;;;;;10.93;6.30;;;;;;;6.59;59.64;102216.19;4896778;29;20055;-68
2022/03/14 02:24:44;;;;;;;11.93;6.65;;;;;;;6.55;60.31;102226.66;4896715;29;20044;-68
2022/03/14 02:27:14;;;;;;;11.50;6.85;;;;;;;6.46;62.06;102225.22;4897164;29;20048;-68
2022/03/14 02:29:42;;;;;;;10.88;7.18;;;;;;;6.39;61.35;102227.94;4896771;29;20041;-68
2022/03/14 02:32:12;;;;;;;18.27;8.52;;;;;;;6.49;60.84;102226.69;4896189;29;20064;-68
2022/03/14 02:34:41;;;;;;;13.38;8.85;;;;;;;6.55;60.73;102231.28;4896499;29;20053;-68
2022/03/14 02:37:09;;;;;;;11.32;7.95;;;;;;;6.45;61.00;102218.94;4895624;29;20057;-68
2022/03/14 02:39:38;;;;;;;15.65;8.63;;;;;;;6.54;60.70;102225.00;4899672;29;20048;-68
2022/03/14 02:42:08;;;;;;;13.73;8.35;;;;;;;6.59;60.33;102216.19;4899838;29;20048;-68
2022/03/14 02:44:42;;;;;;;16.73;10.13;;;;;;;6.36;61.81;102209.31;4900041;29;20045;-68
2022/03/14 02:47:11;;;;;;;16.50;10.00;;;;;;;6.28;61.31;102198.66;4899993;29;20052;-68
2022/03/14 02:49:39;;;;;;;15.07;9.93;;;;;;;6.32;61.44;102210.81;4905124;29;20578;-68
2022/03/14 02:52:07;;;;;;;14.77;9.75;;;;;;;6.20;61.91;102220.66;4904046;29;20049;-68
2022/03/14 02:54:35;;;;;;;24.52;9.73;;;;;;;6.09;62.31;102216.66;4899386;29;20060;-68
2022/03/14 02:57:05;;;;;;;14.38;9.35;;;;;;;6.19;62.00;102217.06;4899887;29;20051;-68
2022/03/14 02:59:34;;;;;;;13.88;9.90;;;;;;;6.19;62.32;102219.78;4899577;29;20045;-68
2022/03/14 03:02:02;;;;;;;16.80;9.23;;;;;;;6.11;62.85;102225.47;4899406;29;20061;-68
2022/03/14 03:04:30;;;;;;;14.25;9.50;;;;;;;6.23;62.09;102221.06;4899020;29;20057;-68
2022/03/14 03:06:59;;;;;;;14.02;9.43;;;;;;;6.33;61.89;102223.34;4899648;29;20060;-68
2022/03/14 03:09:27;;;;;;;14.77;9.85;;;;;;;6.22;62.52;102221.25;4899650;29;20041;-68
2022/03/14 03:11:55;;;;;;;15.35;9.40;;;;;;;6.14;62.80;102225.03;4899325;29;20059;-68
2022/03/14 03:14:23;;;;;;;15.90;9.60;;;;;;;6.05;63.15;102232.53;4899652;29;20059;-68
2022/03/14 03:16:51;;;;;;;14.50;9.30;;;;;;;6.02;63.19;102249.25;4899482;29;20068;-68
2022/03/14 03:19:19;;;;;;;13.23;9.18;;;;;;;6.01;63.25;102239.44;4899461;29;20492;-68
2022/03/14 03:21:47;;;;;;;13.50;8.80;;;;;;;6.01;63.25;102247.59;4899039;29;20048;-68
2022/03/14 03:24:15;;;;;;;16.25;9.40;;;;;;;5.98;63.88;102245.28;4899535;29;20056;-68
2022/03/14 03:26:42;;;;;;;15.20;9.30;;;;;;;6.02;63.61;102246.53;4899274;29;20045;-68
2022/03/14 03:29:10;;;;;;;19.73;9.75;;;;;;;6.00;63.62;102254.03;4899135;29;20044;-68
2022/03/14 03:31:39;;;;;;;17.38;9.88;;;;;;;5.93;64.13;102251.34;4897494;29;20090;-68
2022/03/14 03:34:07;;;;;;;15.75;9.63;;;;;;;5.94;64.34;102255.72;4899260;29;20073;-68
2022/03/14 03:36:35;;;;;;;16.17;9.15;;;;;;;5.90;65.37;102255.31;4898831;29;20045;-68
2022/03/14 03:39:02;;;;;;;16.67;9.68;;;;;;;5.87;64.49;102247.56;4899223;29;20052;-68
2022/03/14 03:41:31;;;;;;;14.07;10.27;;;;;;;5.82;64.74;102239.19;4898572;29;20060;-68
2022/03/14 03:43:59;;;;;;;14.20;10.10;;;;;;;5.90;63.90;102246.31;4899303;29;20057;-68
2022/03/14 03:46:27;;;;;;;15.50;9.80;;;;;;;5.95;64.34;102243.81;4899208;29;20056;-68
2022/03/14 03:48:58;;;;;;;14.38;9.35;;;;;;;5.88;63.68;102249.22;4898957;29;20041;-68
2022/03/14 03:51:26;;;;;;;19.73;9.90;;;;;;;5.90;63.59;102252.59;4897977;29;20060;-68
2022/03/14 03:53:54;;;;;;;12.95;8.57;;;;;;;5.87;64.88;102252.97;4899040;29;20076;-68
2022/03/14 03:56:22;;;;;;;14.18;8.98;;;;;;;5.95;63.69;102256.56;4898773;29;20044;-67
2022/03/14 03:58:50;;;;;;;19.23;9.65;;;;;;;5.93;63.33;102251.34;4898652;29;20040;-68
2022/03/14 04:01:23;;;;;;;14.32;9.50;;;;;;;6.04;62.85;102255.34;4899010;29;20040;-68
2022/03/14 04:03:54;;;;;;;17.48;9.32;;;;;;;6.16;62.92;102250.94;4898761;29;20056;-68
2022/03/14 04:06:30;;;;;;;16.48;9.07;;;;;;;6.17;62.46;102260.78;4898567;29;20451;-68
2022/03/14 04:09:00;;;;;;;17.10;9.40;;;;;;;6.12;63.53;102271.44;4898662;29;20048;-69
2022/03/14 04:11:28;;;;;;;15.40;8.75;;;;;;;6.05;64.41;102271.44;4898709;29;20048;-68
2022/03/14 04:13:58;;;;;;;19.23;9.98;;;;;;;5.91;64.49;102270.56;4896585;29;20049;-69
2022/03/14 04:16:27;;;;;;;14.80;9.07;;;;;;;5.95;64.49;102275.59;4898558;29;20056;-68
2022/03/14 04:18:58;;;;;;;14.15;9.30;;;;;;;6.04;64.77;102286.09;4898196;29;20053;-69
2022/03/14 04:21:26;;;;;;;19.02;9.82;;;;;;;6.01;64.53;102293.78;4897932;29;20052;-69
2022/03/14 04:23:55;;;;;;;18.50;10.82;;;;;;;6.12;64.05;102287.75;4897960;29;20061;-69
2022/03/14 04:26:22;;;;;;;20.95;9.40;;;;;;;6.15;63.92;102287.34;4898089;29;20496;-69
2022/03/14 04:28:50;;;;;;;29.80;10.27;;;;;;;6.07;64.32;102293.00;4897768;29;20068;-68
2022/03/14 04:31:18;;;;;;;24.63;10.25;;;;;;;5.95;65.23;102292.72;4898573;29;20052;-67
2022/03/14 04:33:46;;;;;;;20.35;10.35;;;;;;;5.92;65.46;102291.25;4895801;29;20064;-68
2022/03/14 04:36:15;;;;;;;32.28;12.45;;;;;;;5.87;66.05;102293.75;4898013;29;20059;-68
2022/03/14 04:38:43;;;;;;;20.77;10.55;;;;;;;5.93;65.13;102294.81;4897489;29;20041;-68
2022/03/14 04:41:12;;;;;;;23.23;10.43;;;;;;;5.92;65.35;102290.44;4897895;29;20045;-68
2022/03/14 04:43:40;;;;;;;19.88;10.20;;;;;;;6.08;64.51;102304.69;4897816;29;20414;-68
2022/03/14 04:46:08;;;;;;;23.00;11.32;;;;;;;6.10;64.54;102310.78;4897535;29;20060;-68
2022/03/14 04:48:36;;;;;;;21.00;11.35;;;;;;;6.11;65.04;102299.66;4897246;29;20056;-69
2022/03/14 04:51:04;;;;;;;20.92;10.77;;;;;;;6.12;64.77;102306.78;4907607;29;20044;-68
2022/03/14 04:53:32;;;;;;;19.38;10.68;;;;;;;6.05;64.72;102308.66;4897742;29;20056;-68
2022/03/14 04:56:00;;;;;;;21.02;11.02;;;;;;;5.86;65.06;102311.09;4897376;29;20408;-68
2022/03/14 04:58:28;;;;;;;20.58;10.50;;;;;;;5.81;65.51;102316.31;4897244;29;20412;-68
2022/03/14 05:00:56;;;;;;;19.70;10.15;;;;;;;5.69;66.15;102323.38;4897512;29;20051;-68
2022/03/14 05:03:24;;;;;;;18.80;10.77;;;;;;;5.62;66.29;102326.91;4897140;29;20500;-68
2022/03/14 05:05:52;;;;;;;17.70;11.07;;;;;;;5.57;66.81;102329.38;4895986;29;20063;-68
2022/03/14 05:08:20;;;;;;;17.55;10.05;;;;;;;5.48;67.17;102328.72;4897032;29;20047;-68
2022/03/14 05:10:50;;;;;;;19.58;9.90;;;;;;;5.48;67.90;102330.63;4897675;29;20056;-68
2022/03/14 05:13:18;;;;;;;24.40;11.32;;;;;;;5.43;67.60;102327.66;4897564;29;20056;-68
2022/03/14 05:15:46;;;;;;;20.25;10.45;;;;;;;5.42;67.03;102326.00;4897159;29;20056;-68
2022/03/14 05:18:14;;;;;;;18.13;10.40;;;;;;;5.42;67.38;102329.53;4896864;29;20049;-68
2022/03/14 05:20:43;;;;;;;15.20;9.45;;;;;;;5.48;67.88;102333.34;4896439;29;20784;-68
2022/03/14 05:23:11;;;;;;;18.95;10.27;;;;;;;5.56;67.47;102338.59;4897438;29;20064;-68
2022/03/14 05:25:38;;;;;;;15.63;9.75;;;;;;;5.53;66.87;102341.72;4895214;29;20052;-68
2022/03/14 05:28:06;;;;;;;17.40;10.05;;;;;;;5.52;66.84;102345.44;4896850;29;20064;-68
2022/03/14 05:30:35;;;;;;;18.30;10.13;;;;;;;5.51;66.77;102343.78;4896156;29;20048;-68
2022/03/14 05:33:03;;;;;;;20.50;10.43;;;;;;;5.52;66.68;102348.16;4895894;29;20408;-68
2022/03/14 05:35:31;;;;;;;20.50;10.52;;;;;;;5.54;66.98;102347.97;4892157;29;20043;-68
2022/03/14 05:37:59;;;;;;;15.43;9.40;;;;;;;5.53;66.83;102351.72;4899302;29;20064;-68
2022/03/14 05:40:27;;;;;;;20.40;10.23;;;;;;;5.51;67.26;102358.22;4900370;29;20064;-68
2022/03/14 05:42:55;;;;;;;16.98;10.13;;;;;;;5.51;67.44;102360.91;4896271;29;20056;-68
2022/03/14 05:45:23;;;;;;;16.50;10.25;;;;;;;5.48;66.86;102358.59;4898312;29;20052;-68
2022/03/14 05:47:51;;;;;;;17.63;9.55;;;;;;;5.49;66.35;102354.84;4896894;29;20044;-68
2022/03/14 05:50:20;;;;;;;13.77;9.27;;;;;;;5.55;66.41;102364.06;4895419;29;20060;-68
2022/03/14 05:52:48;;;;;;;17.05;10.18;;;;;;;5.56;66.62;102359.47;4896800;29;20404;-68
2022/03/14 05:55:16;;;;;;;15.95;9.75;;;;;;;5.61;66.81;102371.41;4896020;29;20079;-68
2022/03/14 05:57:47;;;;;;;19.92;10.20;;;;;;;5.63;65.67;102371.22;4896850;29;20045;-69
2022/03/14 06:00:23;;;;;;;16.73;10.00;;;;;;;5.71;66.59;102378.34;4895567;29;20041;-69
2022/03/14 06:02:54;;;;;;;16.88;10.05;;;;;;;5.78;64.78;102382.75;4893662;29;20496;-68
2022/03/14 06:05:23;;;;;;;19.08;9.90;;;;;;;5.83;64.42;102375.88;4895756;29;20044;-68
2022/03/14 06:07:51;;;;;;;19.95;11.35;;;;;;;6.08;64.14;102388.94;4895075;29;20064;-69
2022/03/14 06:10:19;;;;;;;16.67;10.35;;;;;;;6.15;63.48;102390.66;4896058;29;20082;-67
2022/03/14 06:12:48;;;;;;;17.58;10.65;;;;;;;6.10;64.42;102395.03;4895862;29;20508;-67
2022/03/14 06:15:16;;;;;;;19.00;10.02;;;;;;;6.10;64.61;102392.31;4898263;29;20048;-67
2022/03/14 06:17:45;;;;;;;23.50;10.65;;;;;;;6.10;64.30;102401.28;4898571;29;20067;-69
2022/03/14 06:20:15;;;;;;;18.00;9.07;;;;;;;6.11;64.20;102399.44;4899714;29;20408;-84
2022/03/14 06:22:48;;;;;;;21.13;10.15;;;;;;;6.26;63.05;102397.34;4882978;29;20052;-72
2022/03/14 06:25:19;;;;;;;20.40;10.50;;;;;;;6.31;62.94;102413.06;4899552;29;20512;-71
2022/03/14 06:27:48;;;;;;;22.42;9.88;;;;;;;6.36;63.97;102417.88;4898168;29;20059;-71
2022/03/14 06:30:16;;;;;;;22.33;9.98;;;;;;;6.36;63.06;102418.69;4897740;29;20040;-72
2022/03/14 06:32:47;;;;;;;22.08;10.15;;;;;;;6.51;62.55;102423.97;4899298;29;20056;-69
2022/03/14 06:35:16;;;;;;;23.08;10.65;;;;;;;6.80;62.09;102431.97;4905599;29;20053;-72
2022/03/14 06:37:45;;;;;;;23.35;10.00;;;;;;;6.82;61.17;102424.41;4899924;29;20048;-71
2022/03/14 06:40:13;;;;;;;16.25;10.05;;;;;;;6.87;60.94;102430.06;4899765;29;20040;-71
2022/03/14 06:42:48;;;;;;;25.88;11.68;;;;;;;7.14;62.77;102424.63;4897234;29;20052;-68
2022/03/14 06:45:23;;;;;;;14.43;9.30;;;;;;;7.38;58.93;102425.00;4898020;29;20060;-68
2022/03/14 06:47:53;;;;;;;20.58;9.77;;;;;;;7.47;58.49;102426.44;4889032;29;20060;-68
2022/03/14 06:50:23;;;;;;;15.35;9.77;;;;;;;7.57;58.75;102427.91;4899312;29;20408;-68
2022/03/14 06:52:53;;;;;;;19.60;9.55;;;;;;;7.56;57.63;102428.91;4898111;29;20063;-68
2022/03/14 06:55:21;;;;;;;16.35;9.25;;;;;;;7.61;57.49;102434.56;4899754;29;20045;-68
2022/03/14 06:57:49;;;;;;;16.45;9.73;;;;;;;7.54;57.14;102440.06;4898917;29;20411;-68
2022/03/14 07:00:17;;;;;;;18.10;9.40;;;;;;;7.60;57.38;102439.19;4899351;29;20055;-68
2022/03/14 07:02:45;;;;;;;17.65;9.38;;;;;;;7.51;57.47;102441.31;4899330;29;20057;-68
2022/03/14 07:05:17;;;;;;;14.27;9.32;;;;;;;7.49;57.57;102440.69;4898944;29;20067;-68
2022/03/14 07:07:48;;;;;;;23.55;9.43;;;;;;;7.62;57.84;102441.72;4898656;29;20048;-69
2022/03/14 07:10:17;;;;;;;14.85;9.10;;;;;;;7.68;56.83;102451.75;4899140;29;20056;-68
2022/03/14 07:12:46;;;;;;;16.58;9.82;;;;;;;7.63;58.65;102454.28;4899170;29;20049;-68
2022/03/14 07:15:22;;;;;;;17.30;9.13;;;;;;;7.83;57.08;102458.84;4897287;29;20044;-68
2022/03/14 07:17:50;;;;;;;16.83;9.45;;;;;;;7.95;58.79;102457.09;4898724;29;20052;-68
2022/03/14 07:20:20;;;;;;;19.90;9.68;;;;;;;7.79;57.46;102461.97;4899273;29;20531;-68
2022/03/14 07:22:52;;;;;;;20.75;9.32;;;;;;;7.89;57.34;102458.81;4898964;29;20049;-68
2022/03/14 07:25:21;;;;;;;19.13;9.25;;;;;;;7.99;56.61;102480.16;4897796;29;20061;-68
2022/03/14 07:27:51;;;;;;;16.75;9.98;;;;;;;8.28;57.15;102475.22;4898387;29;20405;-68
2022/03/14 07:30:19;;;;;;;14.55;8.13;;;;;;;8.31;55.55;102476.69;4898758;29;20396;-69
2022/03/14 07:32:47;;;;;;;20.35;10.30;;;;;;;8.32;56.08;102468.25;4899453;29;20400;-68
2022/03/14 07:35:15;;;;;;;17.85;10.27;;;;;;;8.59;54.87;102480.94;4897342;29;20049;-68
2022/03/14 07:37:44;;;;;;;21.05;9.88;;;;;;;8.64;54.90;102475.66;4899300;29;20482;-68
2022/03/14 07:40:13;;;;;;;16.83;10.02;;;;;;;8.62;56.77;102479.66;4898676;29;20057;-68
2022/03/14 07:42:43;;;;;;;21.60;10.55;;;;;;;8.78;55.24;102484.59;4898110;29;20522;-68
2022/03/14 07:45:13;;;;;;;19.35;8.98;;;;;;;8.76;54.49;102505.84;4898398;29;20056;-68
2022/03/14 07:47:42;;;;;;;26.48;10.45;;;;;;;8.64;54.70;102493.94;4897411;29;20059;-69
2022/03/14 07:50:14;;;;;;;21.15;9.90;;;;;;;8.87;54.63;102505.13;4898633;29;20052;-69
2022/03/14 07:52:43;;;;;;;30.50;11.05;;;;;;;9.05;53.90;102502.69;4898384;29;20060;-68
2022/03/14 07:55:12;;;;;;;22.13;11.05;;;;;;;9.06;54.18;102497.00;4898435;29;20052;-68
2022/03/14 07:57:40;;;;;;;24.90;9.65;;;;;;;9.13;52.76;102503.25;4898206;29;20052;-68
2022/03/14 08:00:15;;;;;;;21.55;10.65;;;;;;;9.07;52.79;102506.88;4898933;29;20440;-68
2022/03/14 08:02:43;;;;;;;17.02;10.43;;;;;;;9.22;51.61;102506.53;4898233;29;20068;-68
2022/03/14 08:05:16;;;;;;;15.75;9.02;;;;;;;9.45;50.98;102505.09;4897741;29;20056;-68
2022/03/14 08:07:46;;;;;;;14.88;8.73;;;;;;;9.58;50.42;102512.28;4898205;29;20068;-68
2022/03/14 08:10:16;;;;;;;18.25;9.65;;;;;;;9.62;50.78;102507.22;4897943;29;20511;-68
2022/03/14 08:12:54;;;;;;;14.93;8.52;;;;;;;9.84;49.56;102506.78;4898426;29;20540;-68
2022/03/14 08:15:30;;;;;;;15.82;8.88;;;;;;;9.89;48.59;102506.94;4898126;29;20147;-68
2022/03/14 08:18:03;;;;;;;13.38;8.65;;;;;;;9.98;48.25;102511.06;4897298;29;20535;-68
2022/03/14 08:20:32;;;;;;;13.90;8.43;;;;;;;9.93;49.48;102508.97;4897592;29;20053;-68
2022/03/14 08:23:02;;;;;;;13.50;9.43;;;;;;;10.18;48.18;102519.00;4898070;29;20083;-67
2022/03/14 08:25:32;;;;;;;18.77;8.57;;;;;;;10.15;47.41;102519.47;4897352;29;20498;-67
2022/03/14 08:28:00;;;;;;;16.08;9.07;;;;;;;10.18;47.22;102521.72;4898127;29;20056;-67
2022/03/14 08:30:28;;;;;;;12.75;8.43;;;;;;;10.13;47.45;102524.34;4897987;29;20492;-67
2022/03/14 08:32:58;;;;;;;17.58;8.10;;;;;;;10.22;47.31;102524.88;4896070;29;20063;-67
2022/03/14 08:35:27;;;;;;;11.35;8.27;;;;;;;10.32;46.96;102529.78;4897582;29;20052;-67
2022/03/14 08:37:56;;;;;;;17.90;8.13;;;;;;;10.42;47.08;102526.50;4897690;29;20052;-68
2022/03/14 08:40:26;;;;;;;15.48;7.75;;;;;;;10.42;49.02;102532.78;4897583;29;20047;-68
2022/03/14 08:42:56;;;;;;;12.90;7.30;;;;;;;10.42;47.41;102543.75;4897416;29;20410;-67
2022/03/14 08:45:25;;;;;;;11.48;6.68;;;;;;;10.54;47.85;102540.25;4897406;29;20057;-68
2022/03/14 08:47:54;;;;;;;10.23;6.07;;;;;;;10.71;46.86;102535.81;4897408;29;20048;-67
2022/03/14 08:50:22;;;;;;;10.32;6.90;;;;;;;10.93;46.55;102529.81;4897301;29;20052;-67
2022/03/14 08:52:52;;;;;;;8.30;6.28;;;;;;;11.07;46.09;102529.59;4897219;29;20045;-68
2022/03/14 08:55:21;;;;;;;10.60;6.80;;;;;;;11.50;45.27;102527.63;4896894;29;20052;-68
2022/03/14 08:57:49;;;;;;;14.52;6.45;;;;;;;11.60;43.61;102519.63;4897269;29;20048;-67
2022/03/14 09:00:17;;;;;;;12.20;6.45;;;;;;;11.64;44.85;102525.47;4896984;29;20048;-67
2022/03/14 09:02:45;;;;;;;15.45;6.95;;;;;;;11.35;44.39;102517.13;4897262;29;20056;-67
2022/03/14 09:05:13;;;;;;;11.07;6.82;;;;;;;11.20;45.59;102532.13;4896767;29;20064;-68
2022/03/14 09:07:41;;;;;;;11.88;7.20;;;;;;;11.55;44.14;102520.34;4897228;29;20404;-68
2022/03/14 09:10:15;;;;;;;14.52;7.25;;;;;;;11.18;45.29;102523.31;4896347;29;20519;-68
2022/03/14 09:12:50;;;;;;;10.63;6.88;;;;;;;10.88;45.85;102529.66;4896652;29;20053;-67
2022/03/14 09:15:20;;;;;;;8.20;6.75;;;;;;;10.95;45.83;102527.66;4896394;29;20056;-67
2022/03/14 09:17:49;;;;;;;12.25;5.55;;;;;;;11.41;44.27;102528.00;4896718;29;20488;-68
2022/03/14 09:20:19;;;;;;;9.20;5.20;;;;;;;11.69;43.59;102528.34;4896490;29;20079;-67
2022/03/14 09:22:47;;;;;;;8.02;5.15;;;;;;;11.70;43.89;102535.50;4896011;29;20412;-67
2022/03/14 09:25:16;;;;;;;8.10;5.90;;;;;;;11.38;44.04;102544.91;4896903;29;20037;-67
2022/03/14 09:27:45;;;;;;;6.70;4.90;;;;;;;11.05;43.78;102542.69;4896692;29;20061;-68
2022/03/14 09:30:14;;;;;;;6.78;4.63;;;;;;;11.60;43.23;102551.69;4896143;29;20052;-68
2022/03/14 09:32:43;;;;;;;7.75;5.43;;;;;;;11.75;42.46;102554.81;4896433;29;20052;-68
2022/03/14 09:35:13;;;;;;;10.25;4.97;;;;;;;11.54;42.84;102548.84;4896757;29;20063;-68
2022/03/14 09:37:42;;;;;;;7.95;5.25;;;;;;;12.33;41.73;102548.66;4896749;29;20064;-68
2022/03/14 09:40:17;;;;;;;10.40;4.93;;;;;;;11.82;42.55;102561.00;4895987;29;20504;-68
2022/03/14 09:42:51;;;;;;;6.93;5.40;;;;;;;11.82;42.15;102555.50;4896621;29;20052;-68
2022/03/14 09:45:20;;;;;;;7.97;5.53;;;;;;;12.03;42.84;102568.84;4896737;29;20063;-68
2022/03/14 09:47:50;;;;;;;12.82;6.07;;;;;;;12.25;42.95;102562.75;4897182;29;20053;-68
2022/03/14 09:50:35;;;;;;;8.27;5.70;;;;;;;11.93;42.38;102563.97;4900684;29;20067;-68
2022/03/14 09:53:13;;;;;;;10.70;6.00;;;;;;;12.56;41.31;102564.19;4900593;29;20044;-68
2022/03/14 09:55:47;;;;;;;14.52;6.40;;;;;;;12.28;40.96;102563.13;4900695;29;20063;-68
2022/03/14 09:58:18;;;;;;;;;;;;;;;12.48;41.01;102570.09;4900359;29;20045;-68
2022/03/14 10:00:48;;;;;;;8.23;5.78;;;;;;;12.25;41.65;102563.59;4900675;29;19923;-68
2022/03/14 10:03:22;;;;;;;10.90;5.50;;;;;;;12.14;41.96;102568.03;4900557;29;20404;-68
2022/03/14 10:05:50;;;;;;;10.23;6.13;;;;;;;12.22;41.40;102570.38;4900535;29;20053;-68
2022/03/14 10:08:18;;;;;;;9.15;5.90;;;;;;;12.40;42.33;102565.81;4899838;29;20500;-67
2022/03/14 10:10:46;;;;;;;10.95;6.35;;;;;;;12.57;42.10;102573.28;4900578;29;20059;-68
2022/03/14 10:13:37;;;;;;;10.25;5.70;;;;;;;12.36;41.42;102575.59;4900352;29;20049;-67
2022/03/14 10:16:06;;;;;;;10.55;6.50;;;;;;;12.44;41.68;102582.63;4900180;29;20526;-67
2022/03/14 10:19:05;;;;;;;10.80;6.28;;;;;;;12.28;42.63;102579.59;4900236;29;20060;-67
2022/03/14 10:21:44;;;;;;;9.05;6.43;;;;;;;12.09;43.41;102570.66;4899607;29;20056;-67
2022/03/14 10:24:13;;;;;;;12.98;8.15;;;;;;;12.34;44.48;102575.88;4900353;29;20052;-67
2022/03/14 10:26:43;;;;;;;13.93;8.15;;;;;;;12.39;42.79;102568.78;4899478;29;20056;-68
2022/03/14 10:29:15;;;;;;;12.40;8.63;;;;;;;12.49;42.63;102558.88;4899564;29;20388;-67
2022/03/14 10:31:47;;;;;;;11.95;7.97;;;;;;;12.47;43.43;102560.19;4899519;29;20055;-70
2022/03/14 10:34:16;;;;;;;12.25;8.02;;;;;;;12.60;43.39;102554.41;4899867;29;20064;-67
2022/03/14 10:36:49;;;;;;;10.32;6.80;;;;;;;12.21;43.72;102541.28;4899491;29;20049;-68
2022/03/14 10:39:27;;;;;;;10.77;7.30;;;;;;;12.80;43.75;102546.78;4899076;29;20048;-67
2022/03/14 10:42:08;;;;;;;11.30;7.60;;;;;;;12.67;42.81;102545.19;4899505;29;20060;-67
2022/03/14 10:44:49;;;;;;;12.38;8.32;;;;;;;12.93;42.45;102545.63;4899649;29;20504;-68
2022/03/14 10:47:19;;;;;;;9.65;7.40;;;;;;;13.19;41.76;102543.34;4899331;29;20529;-67
2022/03/14 10:49:49;;;;;;;12.32;7.82;;;;;;;12.94;42.14;102545.41;4898571;29;20057;-68
2022/03/14 10:52:20;;;;;;;10.02;7.13;;;;;;;12.52;41.94;102545.72;4898172;29;20056;-67
2022/03/14 10:54:50;;;;;;;13.27;7.80;;;;;;;12.29;42.92;102553.78;4898300;29;20053;-68
2022/03/14 10:57:22;;;;;;;12.43;7.97;;;;;;;12.75;42.77;102556.59;4899273;29;20049;-68
2022/03/14 10:59:51;;;;;;;12.45;7.85;;;;;;;13.22;41.72;102565.66;4898351;29;20048;-69
2022/03/14 11:02:22;;;;;;;11.98;7.72;;;;;;;13.54;40.44;102565.09;4898926;29;20049;-69
2022/03/14 11:04:53;;;;;;;15.68;7.68;;;;;;;12.96;42.37;102556.16;4898870;29;20126;-68
2022/03/14 11:07:25;;;;;;;12.75;8.07;;;;;;;13.04;41.51;102558.47;4897141;29;20067;-68
2022/03/14 11:09:58;;;;;;;11.38;7.82;;;;;;;13.37;41.49;102556.84;4897779;29;20056;-68
2022/03/14 11:12:28;;;;;;;12.43;8.23;;;;;;;13.54;40.71;102547.78;4898666;29;20054;-69
2022/03/14 11:15:05;;;;;;;12.73;7.88;;;;;;;13.25;41.56;102548.66;4897625;29;20053;-69
2022/03/14 11:17:35;;;;;;;11.40;7.82;;;;;;;13.17;40.43;102540.84;4899201;29;20076;-69
2022/03/14 11:20:23;;;;;;;13.88;8.40;;;;;;;12.82;41.67;102534.47;4899067;29;20056;-69
2022/03/14 11:22:52;;;;;;;15.30;9.57;;;;;;;12.77;41.58;102531.63;4898993;29;20060;-69
2022/03/14 11:25:21;;;;;;;13.80;8.77;;;;;;;12.60;42.58;102535.19;4898030;29;20052;-68
2022/03/14 11:27:50;;;;;;;15.68;8.93;;;;;;;13.15;40.99;102526.53;4897898;29;20404;-68
2022/03/14 11:30:19;;;;;;;16.95;8.88;;;;;;;13.41;40.72;102524.16;4898228;29;20045;-69
2022/03/14 11:32:48;;;;;;;15.48;9.18;;;;;;;13.08;41.13;102512.94;4897722;29;20401;-69